Time;durP1;ratioP1;P1;durP2;ratioP2;P2;SDS_P1;SDS_P2;PMS_P1;PMS_P2;Temp;Humidity;BMP_temperature;BMP_pressure;BME280_temperature;BME280_humidity;BME280_pressure;Samples;Min_cycle;Max_cycle;Signal;HPM_P1;HPM_P2
2024/01/10 00:01:26;;;;;;;13.43;10.07;;;-3.60;99.90;;;;;;5114203;27;20043;-64
2024/01/10 00:03:53;;;;;;;13.18;9.57;;;-3.60;99.90;;;;;;5077880;28;20047;-64
2024/01/10 00:06:19;;;;;;;16.25;11.45;;;-3.70;99.90;;;;;;5084448;28;20047;-63
2024/01/10 00:08:45;;;;;;;14.27;10.65;;;-3.70;99.90;;;;;;5079007;28;20561;-64
2024/01/10 00:11:10;;;;;;;18.08;10.82;;;-3.70;99.90;;;;;;5085535;28;20039;-64
2024/01/10 00:13:36;;;;;;;13.85;9.73;;;-3.70;99.90;;;;;;5084657;28;20148;-64
2024/01/10 00:16:02;;;;;;;15.57;11.38;;;-3.70;99.90;;;;;;5082288;28;20044;-64
2024/01/10 00:18:27;;;;;;;18.58;11.35;;;-3.70;99.90;;;;;;5090733;28;20662;-64
2024/01/10 00:20:56;;;;;;;16.13;10.63;;;-3.70;99.90;;;;;;5082235;28;20170;-64
2024/01/10 00:23:22;;;;;;;12.98;10.00;;;-3.70;99.90;;;;;;5084737;28;20075;-64
2024/01/10 00:25:48;;;;;;;15.35;10.13;;;-3.70;99.90;;;;;;5087211;28;20160;-64
2024/01/10 00:28:18;;;;;;;13.35;9.95;;;-3.70;99.90;;;;;;5082043;28;20508;-64
2024/01/10 00:30:44;;;;;;;14.13;9.43;;;-3.70;99.90;;;;;;5087269;28;20048;-64
2024/01/10 00:33:11;;;;;;;13.93;10.45;;;-3.70;99.90;;;;;;5083675;28;20072;-64
2024/01/10 00:35:37;;;;;;;15.38;10.63;;;-3.80;99.90;;;;;;5085589;28;20549;-64
2024/01/10 00:38:03;;;;;;;15.05;10.82;;;-3.80;99.90;;;;;;5081674;28;20032;-64
2024/01/10 00:40:28;;;;;;;13.02;9.85;;;-3.90;99.90;;;;;;5081387;28;20036;-64
2024/01/10 00:42:54;;;;;;;15.57;9.98;;;-3.80;99.90;;;;;;5070072;28;20390;-64
2024/01/10 00:45:20;;;;;;;14.07;10.35;;;-3.80;99.90;;;;;;5068824;28;20058;-64
2024/01/10 00:47:48;;;;;;;13.30;10.77;;;-3.80;99.90;;;;;;5083913;28;20044;-63
2024/01/10 00:50:13;;;;;;;15.27;10.32;;;-3.80;99.90;;;;;;5083427;28;20106;-64
2024/01/10 00:52:39;;;;;;;13.98;9.57;;;-3.80;99.90;;;;;;5085747;28;20042;-64
2024/01/10 00:55:05;;;;;;;13.80;8.88;;;-3.80;99.90;;;;;;5081197;28;20055;-63
2024/01/10 00:57:30;;;;;;;15.25;11.27;;;-3.80;99.90;;;;;;5069709;28;20051;-64
2024/01/10 00:59:56;;;;;;;12.77;9.63;;;-3.80;99.90;;;;;;5101912;27;20062;-64
2024/01/10 01:02:22;;;;;;;13.23;9.45;;;-3.80;99.90;;;;;;5082871;28;20119;-64
2024/01/10 01:04:47;;;;;;;13.25;9.93;;;-3.80;99.90;;;;;;5092239;28;20040;-64
2024/01/10 01:07:13;;;;;;;13.18;9.52;;;-3.80;99.90;;;;;;5082625;28;20040;-64
2024/01/10 01:09:38;;;;;;;13.02;8.98;;;-3.80;99.90;;;;;;5085438;28;20032;-64
2024/01/10 01:12:04;;;;;;;12.02;9.88;;;-3.80;99.90;;;;;;5084017;28;20040;-64
2024/01/10 01:14:30;;;;;;;12.43;9.40;;;-3.90;99.90;;;;;;5084910;28;20071;-64
2024/01/10 01:16:56;;;;;;;13.15;9.50;;;-3.90;99.90;;;;;;5084422;28;20043;-64
2024/01/10 01:19:22;;;;;;;12.93;9.18;;;-3.90;99.90;;;;;;5080303;28;20051;-64
2024/01/10 01:21:47;;;;;;;13.25;10.13;;;-3.90;99.90;;;;;;5086571;28;20037;-63
2024/01/10 01:24:13;;;;;;;11.98;9.27;;;-3.90;99.90;;;;;;5084368;28;20135;-64
2024/01/10 01:26:39;;;;;;;13.88;9.30;;;-4.00;99.90;;;;;;5083843;28;20051;-64
2024/01/10 01:29:04;;;;;;;14.13;8.48;;;-4.00;99.90;;;;;;5085496;28;20485;-64
2024/01/10 01:31:31;;;;;;;12.85;9.63;;;-4.00;99.90;;;;;;5085434;28;20120;-64
2024/01/10 01:33:57;;;;;;;14.85;9.60;;;-4.00;99.90;;;;;;5097933;27;20051;-64
2024/01/10 01:36:23;;;;;;;13.07;10.35;;;-4.20;99.90;;;;;;5076825;28;20051;-64
2024/01/10 01:38:48;;;;;;;14.52;9.82;;;-4.20;99.90;;;;;;5115750;27;20039;-64
2024/01/10 01:41:14;;;;;;;12.80;10.18;;;-4.20;99.90;;;;;;5084427;28;20525;-64
2024/01/10 01:43:40;;;;;;;14.75;10.20;;;-4.20;99.90;;;;;;5082529;28;20047;-64
2024/01/10 01:46:07;;;;;;;13.52;9.98;;;-4.20;99.90;;;;;;5082002;28;20044;-64
2024/01/10 01:48:33;;;;;;;13.32;10.00;;;-4.30;99.90;;;;;;5083361;28;20052;-64
2024/01/10 01:51:03;;;;;;;13.95;9.65;;;-4.30;99.90;;;;;;5084461;28;20048;-64
2024/01/10 01:53:29;;;;;;;15.68;11.57;;;-4.30;99.90;;;;;;5079767;28;20206;-64
2024/01/10 01:55:55;;;;;;;14.65;10.45;;;-4.40;99.90;;;;;;5084936;28;20163;-64
2024/01/10 01:58:23;;;;;;;15.27;9.82;;;-4.40;99.90;;;;;;5080247;28;20040;-64
2024/01/10 02:00:49;;;;;;;14.77;10.80;;;-4.40;99.90;;;;;;5080051;28;20043;-64
2024/01/10 02:03:15;;;;;;;14.88;10.60;;;-4.40;99.90;;;;;;5081931;28;20040;-63
2024/01/10 02:05:41;;;;;;;14.52;10.23;;;-4.40;99.90;;;;;;5080891;28;20044;-64
2024/01/10 02:08:08;;;;;;;15.40;10.88;;;-4.40;99.90;;;;;;5088331;28;20040;-64
2024/01/10 02:10:34;;;;;;;14.15;11.65;;;-4.40;99.90;;;;;;5082891;28;20040;-64
2024/01/10 02:13:00;;;;;;;13.15;9.82;;;-4.40;99.90;;;;;;5116191;27;20051;-63
2024/01/10 02:15:26;;;;;;;16.35;10.55;;;-4.40;99.90;;;;;;5080317;28;20044;-64
2024/01/10 02:17:51;;;;;;;14.82;10.20;;;-4.40;99.90;;;;;;5080585;28;20051;-63
2024/01/10 02:20:17;;;;;;;14.85;11.57;;;-4.40;99.90;;;;;;5083654;28;20048;-64
2024/01/10 02:22:43;;;;;;;13.88;10.98;;;-4.30;99.90;;;;;;5080336;28;20051;-64
2024/01/10 02:25:10;;;;;;;20.95;11.43;;;-4.30;99.90;;;;;;5082924;28;20363;-64
2024/01/10 02:27:37;;;;;;;14.90;10.13;;;-3.20;99.90;;;;;;5082868;28;20044;-64
2024/01/10 02:30:05;;;;;;;14.45;10.10;;;-4.30;99.90;;;;;;5084540;28;20127;-63
2024/01/10 02:32:31;;;;;;;14.30;9.75;;;-4.30;99.90;;;;;;5080133;28;20083;-64
2024/01/10 02:34:57;;;;;;;13.82;9.63;;;-4.30;99.90;;;;;;5062708;28;20040;-64
2024/01/10 02:37:24;;;;;;;16.77;10.65;;;-4.30;99.90;;;;;;5081157;28;20043;-64
2024/01/10 02:39:49;;;;;;;16.00;10.75;;;-4.30;99.90;;;;;;5075386;28;20040;-64
2024/01/10 02:42:15;;;;;;;17.63;12.55;;;-4.30;99.90;;;;;;5081511;28;20036;-64
2024/01/10 02:44:41;;;;;;;16.40;10.80;;;-4.30;99.90;;;;;;5075012;28;20501;-63
2024/01/10 02:47:07;;;;;;;15.60;11.02;;;-4.30;99.90;;;;;;5079470;28;20077;-64
2024/01/10 02:49:33;;;;;;;15.50;10.52;;;-4.30;99.90;;;;;;5072202;28;20035;-64
2024/01/10 02:51:59;;;;;;;17.63;11.20;;;-4.40;99.90;;;;;;5071634;28;20044;-64
2024/01/10 02:54:25;;;;;;;16.67;11.63;;;-4.40;99.90;;;;;;5072280;28;20052;-63
2024/01/10 02:56:52;;;;;;;15.23;11.98;;;-4.30;99.90;;;;;;5072157;28;20037;-64
2024/01/10 02:59:18;;;;;;;19.10;11.70;;;-4.30;99.90;;;;;;5079045;28;20028;-64
2024/01/10 03:01:43;;;;;;;16.38;12.30;;;-4.30;99.90;;;;;;5074329;28;20044;-64
2024/01/10 03:04:09;;;;;;;16.17;12.18;;;-4.40;99.90;;;;;;5080913;28;20044;-64
2024/01/10 03:06:35;;;;;;;17.20;11.68;;;-4.30;99.90;;;;;;5084679;28;20067;-63
2024/01/10 03:09:01;;;;;;;18.83;12.40;;;-4.40;99.90;;;;;;5080940;28;20044;-64
2024/01/10 03:11:27;;;;;;;18.10;11.80;;;-4.30;99.90;;;;;;5081653;28;20055;-64
2024/01/10 03:14:01;;;;;;;15.07;10.80;;;-4.30;99.90;;;;;;5083356;28;20075;-64
2024/01/10 03:16:27;;;;;;;18.17;11.17;;;-4.30;99.90;;;;;;5078570;28;21152;-64
2024/01/10 03:18:53;;;;;;;17.17;10.88;;;-4.30;99.90;;;;;;5079469;28;20293;-64
2024/01/10 03:21:24;;;;;;;20.50;11.70;;;-4.30;99.90;;;;;;5075519;28;20041;-64
2024/01/10 03:23:50;;;;;;;18.65;11.93;;;-4.30;99.90;;;;;;5081168;28;20089;-64
2024/01/10 03:26:16;;;;;;;16.40;12.38;;;-4.30;99.90;;;;;;5080776;28;20423;-64
2024/01/10 03:28:42;;;;;;;16.60;11.85;;;-4.30;99.90;;;;;;5081811;28;20044;-64
2024/01/10 03:31:10;;;;;;;19.02;12.73;;;-4.30;99.90;;;;;;5076470;28;20048;-64
2024/01/10 03:33:36;;;;;;;18.67;11.85;;;-4.30;99.90;;;;;;5106969;27;20037;-64
2024/01/10 03:36:03;;;;;;;16.13;10.70;;;-3.90;99.90;;;;;;5077675;28;20082;-64
2024/01/10 03:38:29;;;;;;;17.17;12.20;;;-4.30;99.90;;;;;;5074650;28;20045;-64
2024/01/10 03:40:55;;;;;;;18.38;13.38;;;-4.30;99.90;;;;;;5084700;28;20391;-64
2024/01/10 03:43:21;;;;;;;17.40;13.18;;;-4.30;99.90;;;;;;5079976;28;20074;-64
2024/01/10 03:45:46;;;;;;;19.10;12.63;;;-4.40;99.90;;;;;;5082238;28;20036;-64
2024/01/10 03:48:12;;;;;;;19.90;12.88;;;-4.40;99.90;;;;;;5081351;28;20047;-64
2024/01/10 03:50:38;;;;;;;19.38;13.07;;;-4.40;99.90;;;;;;5096052;27;20047;-64
2024/01/10 03:53:04;;;;;;;19.17;13.18;;;-4.40;99.90;;;;;;5080465;28;21712;-64
2024/01/10 03:55:29;;;;;;;19.88;12.73;;;-4.40;99.90;;;;;;5079622;28;20486;-64
2024/01/10 03:57:56;;;;;;;22.48;15.00;;;-4.50;99.90;;;;;;5084673;28;20431;-63
2024/01/10 04:00:22;;;;;;;18.45;12.38;;;-4.40;99.90;;;;;;5077822;28;20036;-63
2024/01/10 04:02:47;;;;;;;18.05;12.27;;;-4.40;99.90;;;;;;5081752;28;20054;-64
2024/01/10 04:05:16;;;;;;;18.52;13.02;;;-4.30;99.90;;;;;;5080308;28;20048;-64
2024/01/10 04:07:45;;;;;;;17.95;12.13;;;-4.30;99.90;;;;;;5079954;28;20051;-63
2024/01/10 04:10:13;;;;;;;17.73;12.27;;;-4.40;99.90;;;;;;5083990;28;20071;-64
2024/01/10 04:12:51;;;;;;;16.95;12.30;;;-4.40;99.90;;;;;;5082190;28;20382;-64
2024/01/10 04:15:18;;;;;;;18.85;11.57;;;-4.40;99.90;;;;;;5084142;28;20036;-63
2024/01/10 04:17:44;;;;;;;16.77;12.27;;;-4.40;99.90;;;;;;5110605;27;20163;-63
2024/01/10 04:20:10;;;;;;;18.88;12.98;;;-4.40;99.90;;;;;;5078227;28;20071;-64
2024/01/10 04:22:35;;;;;;;19.02;13.27;;;-4.30;99.90;;;;;;5084282;28;20508;-64
2024/01/10 04:25:04;;;;;;;17.50;13.07;;;-4.30;99.90;;;;;;5079024;28;20032;-64
2024/01/10 04:27:30;;;;;;;16.88;11.13;;;-4.30;99.90;;;;;;5087492;28;20040;-64
2024/01/10 04:29:56;;;;;;;15.73;11.18;;;-4.30;99.90;;;;;;5082079;28;20452;-64
2024/01/10 04:32:21;;;;;;;17.70;12.52;;;-4.30;99.90;;;;;;5080919;28;20040;-64
2024/01/10 04:34:47;;;;;;;19.90;13.02;;;-4.40;99.90;;;;;;5078385;28;20122;-64
2024/01/10 04:37:13;;;;;;;18.30;12.63;;;-4.40;99.90;;;;;;5080483;28;20048;-64
2024/01/10 04:39:40;;;;;;;19.50;13.63;;;-4.40;99.90;;;;;;5110032;27;20582;-64
2024/01/10 04:42:06;;;;;;;19.35;12.98;;;-4.40;99.90;;;;;;5079952;28;20632;-64
2024/01/10 04:44:32;;;;;;;18.40;12.63;;;-4.10;99.90;;;;;;5083810;28;20398;-64
2024/01/10 04:46:58;;;;;;;16.88;11.73;;;-4.40;99.90;;;;;;5078832;28;20039;-64
2024/01/10 04:49:23;;;;;;;22.10;13.15;;;-4.40;99.90;;;;;;5082964;28;20028;-64
2024/01/10 04:51:50;;;;;;;16.65;12.82;;;-4.50;99.90;;;;;;5076136;28;20394;-64
2024/01/10 04:54:16;;;;;;;19.02;12.63;;;-4.40;99.90;;;;;;5077450;28;21975;-63
2024/01/10 04:56:42;;;;;;;18.02;12.32;;;-4.40;99.90;;;;;;5085073;28;20037;-63
2024/01/10 04:59:08;;;;;;;18.88;12.88;;;-4.50;99.90;;;;;;5079219;28;20036;-64
2024/01/10 05:01:34;;;;;;;21.33;13.27;;;-4.40;99.90;;;;;;5111606;27;20484;-64
2024/01/10 05:04:01;;;;;;;17.33;12.43;;;-4.40;99.90;;;;;;5092632;27;20048;-64
2024/01/10 05:06:26;;;;;;;21.20;13.57;;;-4.40;99.90;;;;;;5078829;28;20044;-64
2024/01/10 05:08:53;;;;;;;18.10;12.65;;;-4.50;99.90;;;;;;5063484;28;20046;-64
2024/01/10 05:11:18;;;;;;;18.25;13.80;;;-4.50;99.90;;;;;;5077328;28;20044;-64
2024/01/10 05:13:44;;;;;;;17.08;13.35;;;-4.50;99.90;;;;;;5081871;28;20059;-63
2024/01/10 05:16:09;;;;;;;19.90;14.13;;;-4.50;99.90;;;;;;5081361;28;20113;-64
2024/01/10 05:18:35;;;;;;;19.50;13.40;;;-4.50;99.90;;;;;;5082801;28;20119;-64
2024/01/10 05:21:01;;;;;;;17.75;12.27;;;-4.60;99.90;;;;;;5078096;28;20024;-64
2024/01/10 05:23:27;;;;;;;20.27;13.45;;;-4.60;99.90;;;;;;5080846;28;20090;-63
2024/01/10 05:25:53;;;;;;;19.35;13.00;;;-4.50;99.90;;;;;;5076860;28;20023;-64
2024/01/10 05:28:19;;;;;;;19.65;14.30;;;-4.50;99.90;;;;;;5082285;28;20490;-64
2024/01/10 05:30:45;;;;;;;22.20;14.32;;;-4.50;99.90;;;;;;5082256;28;20055;-64
2024/01/10 05:33:11;;;;;;;19.40;13.38;;;-4.60;99.90;;;;;;5080731;28;20059;-64
2024/01/10 05:35:38;;;;;;;19.33;14.48;;;-4.60;99.90;;;;;;5078664;28;20117;-64
2024/01/10 05:38:04;;;;;;;18.00;13.52;;;-4.60;99.90;;;;;;5076830;28;20032;-63
2024/01/10 05:40:31;;;;;;;19.88;14.15;;;-4.60;99.90;;;;;;5078887;28;20379;-63
2024/01/10 05:42:59;;;;;;;18.25;13.50;;;-4.60;99.90;;;;;;5077728;28;20401;-64
2024/01/10 05:45:25;;;;;;;18.27;13.45;;;-4.60;99.90;;;;;;5082128;28;20032;-64
2024/01/10 05:47:52;;;;;;;19.20;14.18;;;-4.60;99.90;;;;;;5084808;28;20457;-64
2024/01/10 05:50:18;;;;;;;19.50;12.68;;;-4.50;99.90;;;;;;5078733;28;20437;-64
2024/01/10 05:52:44;;;;;;;18.20;13.50;;;-4.60;99.90;;;;;;5083332;28;20483;-64
2024/01/10 05:55:10;;;;;;;20.02;13.48;;;-4.50;99.90;;;;;;5085192;28;20036;-64
2024/01/10 05:57:36;;;;;;;19.00;12.45;;;-4.60;99.90;;;;;;5084188;28;20036;-64
2024/01/10 06:00:03;;;;;;;19.25;14.07;;;-4.50;99.90;;;;;;5082679;28;20051;-63
2024/01/10 06:02:28;;;;;;;17.42;12.57;;;-4.50;99.90;;;;;;5080560;28;20042;-63
2024/01/10 06:04:54;;;;;;;18.38;13.30;;;-4.50;99.90;;;;;;5085953;28;20042;-63
2024/01/10 06:07:20;;;;;;;18.08;13.10;;;-4.50;99.90;;;;;;5080578;28;20119;-64
2024/01/10 06:09:46;;;;;;;18.15;12.77;;;-4.40;99.90;;;;;;5079318;28;20036;-63
2024/01/10 06:12:12;;;;;;;20.13;13.02;;;-4.50;99.90;;;;;;5076606;28;20363;-64
2024/01/10 06:14:38;;;;;;;20.95;13.63;;;-4.50;99.90;;;;;;5080624;28;20050;-64
2024/01/10 06:17:03;;;;;;;16.90;13.82;;;-4.50;99.90;;;;;;5062864;28;20036;-64
2024/01/10 06:19:32;;;;;;;20.20;14.18;;;-4.50;99.90;;;;;;5079056;28;20109;-64
2024/01/10 06:21:58;;;;;;;24.67;14.50;;;-4.60;99.90;;;;;;5081238;28;20033;-64
2024/01/10 06:24:24;;;;;;;22.23;14.63;;;-4.60;99.90;;;;;;5083464;28;20078;-64
2024/01/10 06:26:50;;;;;;;20.35;14.43;;;-4.60;99.90;;;;;;5077389;28;20059;-63
2024/01/10 06:29:16;;;;;;;18.10;13.82;;;-4.50;99.90;;;;;;5111259;27;20032;-63
2024/01/10 06:31:42;;;;;;;21.02;14.50;;;-4.60;99.90;;;;;;5075381;28;20044;-64
2024/01/10 06:34:08;;;;;;;21.45;14.30;;;-4.60;99.90;;;;;;5080202;28;20079;-64
2024/01/10 06:36:34;;;;;;;20.02;13.68;;;-4.60;99.90;;;;;;5077638;28;20036;-64
2024/01/10 06:39:00;;;;;;;17.23;12.50;;;-4.60;99.90;;;;;;5078579;28;20044;-63
2024/01/10 06:41:26;;;;;;;19.00;13.35;;;-4.60;99.90;;;;;;5077958;28;20498;-64
2024/01/10 06:43:52;;;;;;;18.70;13.35;;;-4.60;99.90;;;;;;5083860;28;20044;-64
2024/01/10 06:46:19;;;;;;;19.92;14.10;;;-4.70;99.90;;;;;;5082229;28;20031;-63
2024/01/10 06:48:46;;;;;;;20.58;12.90;;;-4.60;99.90;;;;;;5076746;28;20043;-63
2024/01/10 06:51:16;;;;;;;20.52;14.48;;;-4.70;99.90;;;;;;5083861;28;20047;-64
2024/01/10 06:53:41;;;;;;;22.13;14.00;;;-4.70;99.90;;;;;;5062203;28;20581;-63
2024/01/10 06:56:09;;;;;;;19.77;14.68;;;-4.70;99.90;;;;;;5085173;28;20042;-64
2024/01/10 06:58:35;;;;;;;18.13;13.75;;;-4.70;99.90;;;;;;5083268;28;20051;-63
2024/01/10 07:01:04;;;;;;;17.83;13.50;;;-4.60;99.90;;;;;;5078714;28;20052;-63
2024/01/10 07:03:30;;;;;;;17.63;12.90;;;-4.60;99.90;;;;;;5076464;28;20052;-66
2024/01/10 07:05:57;;;;;;;17.58;12.70;;;-4.60;99.90;;;;;;5079276;28;20101;-66
2024/01/10 07:08:23;;;;;;;18.95;14.32;;;-4.50;99.90;;;;;;5081333;28;20048;-64
2024/01/10 07:10:48;;;;;;;21.17;13.57;;;-4.40;99.90;;;;;;5078440;28;20082;-63
2024/01/10 07:13:14;;;;;;;19.25;12.95;;;-4.50;99.90;;;;;;5078844;28;20064;-63
2024/01/10 07:15:39;;;;;;;20.77;14.40;;;-4.50;99.90;;;;;;5077380;28;20029;-63
2024/01/10 07:18:06;;;;;;;21.00;14.20;;;-4.60;99.90;;;;;;5078141;28;20040;-64
2024/01/10 07:20:32;;;;;;;20.52;14.52;;;-4.60;99.90;;;;;;5081955;28;20071;-63
2024/01/10 07:22:59;;;;;;;17.77;13.25;;;-4.70;99.90;;;;;;5080605;28;20044;-63
2024/01/10 07:25:25;;;;;;;22.42;15.32;;;-4.70;99.90;;;;;;5084053;28;20457;-64
2024/01/10 07:27:51;;;;;;;23.92;15.57;;;-4.70;99.90;;;;;;5081789;28;20168;-64
2024/01/10 07:30:17;;;;;;;21.00;14.88;;;-4.80;99.90;;;;;;5088278;28;20040;-63
2024/01/10 07:32:44;;;;;;;22.35;14.10;;;-4.60;99.90;;;;;;5065981;28;20054;-63
2024/01/10 07:35:13;;;;;;;22.05;14.38;;;-4.80;99.90;;;;;;5083762;28;20039;-63
2024/01/10 07:37:41;;;;;;;21.02;14.85;;;-4.90;99.90;;;;;;5082194;28;20043;-63
2024/01/10 07:40:10;;;;;;;23.20;14.07;;;-4.80;99.90;;;;;;5114982;27;20079;-63
2024/01/10 07:42:37;;;;;;;18.73;14.43;;;-4.90;99.90;;;;;;5081005;28;20617;-63
2024/01/10 07:45:04;;;;;;;18.35;13.95;;;-4.80;99.90;;;;;;5078296;28;20055;-63
2024/01/10 07:47:37;;;;;;;18.52;13.88;;;-4.70;99.90;;;;;;5080513;28;20119;-63
2024/01/10 07:50:04;;;;;;;19.15;14.15;;;-4.80;99.90;;;;;;5080212;28;20055;-63
2024/01/10 07:52:30;;;;;;;18.00;13.60;;;-4.80;99.90;;;;;;5073870;28;20039;-63
2024/01/10 07:54:56;;;;;;;20.13;11.73;;;-4.60;99.90;;;;;;5079710;28;20028;-63
2024/01/10 07:57:21;;;;;;;20.52;13.52;;;-4.70;99.90;;;;;;5076044;28;20099;-63
2024/01/10 07:59:47;;;;;;;21.45;13.68;;;-4.70;99.90;;;;;;5080841;28;20044;-63
2024/01/10 08:02:12;;;;;;;18.42;12.77;;;-4.70;99.90;;;;;;5074277;28;20501;-63
2024/01/10 08:04:38;;;;;;;17.80;12.63;;;-4.40;99.90;;;;;;5077108;28;20040;-63
2024/01/10 08:07:04;;;;;;;19.98;13.82;;;-4.60;99.90;;;;;;5105911;27;20045;-63
2024/01/10 08:09:29;;;;;;;17.00;12.13;;;-4.60;99.90;;;;;;5075008;28;20119;-63
2024/01/10 08:11:55;;;;;;;16.60;12.43;;;-4.30;99.90;;;;;;5063924;28;20043;-63
2024/01/10 08:14:20;;;;;;;17.48;11.88;;;-4.60;99.90;;;;;;5062325;28;20093;-63
2024/01/10 08:16:46;;;;;;;16.38;11.63;;;-4.50;99.90;;;;;;5079556;28;20486;-63
2024/01/10 08:19:12;;;;;;;16.52;12.35;;;-4.30;99.90;;;;;;5079502;28;20405;-63
2024/01/10 08:21:37;;;;;;;17.80;12.57;;;-4.40;99.90;;;;;;5083123;28;20039;-63
2024/01/10 08:24:03;;;;;;;18.67;12.48;;;-4.40;99.90;;;;;;5075546;28;20048;-63
2024/01/10 08:26:30;;;;;;;17.52;12.73;;;-4.20;99.90;;;;;;5075650;28;20135;-63
2024/01/10 08:28:56;;;;;;;16.02;11.80;;;-4.20;99.90;;;;;;5074167;28;20456;-63
2024/01/10 08:31:22;;;;;;;16.23;12.80;;;-4.40;99.90;;;;;;5106471;27;20050;-63
2024/01/10 08:33:48;;;;;;;17.65;12.25;;;-4.10;99.90;;;;;;5075020;28;20087;-63
2024/01/10 08:36:16;;;;;;;17.58;12.55;;;-4.30;99.90;;;;;;5075152;28;20068;-63
2024/01/10 08:38:42;;;;;;;16.55;11.65;;;-3.90;99.90;;;;;;5078184;28;20041;-63
2024/01/10 08:41:08;;;;;;;18.15;12.48;;;-4.20;99.90;;;;;;5075246;28;20572;-63
2024/01/10 08:43:34;;;;;;;17.40;12.77;;;-4.00;99.90;;;;;;5077184;28;20495;-63
2024/01/10 08:46:00;;;;;;;17.98;12.80;;;-4.10;99.90;;;;;;5059609;28;20044;-63
2024/01/10 08:48:26;;;;;;;16.50;11.60;;;-4.00;99.90;;;;;;5072942;28;20067;-63
2024/01/10 08:50:54;;;;;;;16.67;11.70;;;-3.80;99.90;;;;;;5076712;28;20037;-63
2024/01/10 08:53:19;;;;;;;17.10;11.25;;;-3.90;99.90;;;;;;5075021;28;20052;-63
2024/01/10 08:55:47;;;;;;;19.08;11.68;;;-3.90;99.90;;;;;;5076942;28;20032;-63
2024/01/10 08:58:12;;;;;;;15.45;11.88;;;-4.00;99.90;;;;;;5071647;28;20375;-63
2024/01/10 09:00:38;;;;;;;16.88;12.10;;;-3.90;99.90;;;;;;5077765;28;20039;-63
2024/01/10 09:03:04;;;;;;;16.65;10.63;;;-3.90;99.90;;;;;;5073986;28;20563;-63
2024/01/10 09:05:30;;;;;;;15.73;10.82;;;-3.80;99.90;;;;;;5077194;28;20062;-62
2024/01/10 09:07:56;;;;;;;16.63;11.52;;;-3.80;99.90;;;;;;5074611;28;21356;-63
2024/01/10 09:10:22;;;;;;;18.25;11.02;;;-3.80;99.90;;;;;;5107454;27;20044;-63
2024/01/10 09:12:48;;;;;;;16.55;10.85;;;-3.70;99.90;;;;;;5077033;28;20039;-63
2024/01/10 09:15:14;;;;;;;14.63;10.40;;;-3.70;99.90;;;;;;5078357;28;20048;-63
2024/01/10 09:17:44;;;;;;;15.52;10.20;;;-3.60;99.90;;;;;;5059789;28;20036;-63
2024/01/10 09:20:10;;;;;;;15.68;11.20;;;-3.60;99.90;;;;;;5072347;28;20036;-63
2024/01/10 09:22:37;;;;;;;16.63;11.70;;;-3.50;99.90;;;;;;5076053;28;20066;-63
2024/01/10 09:25:07;;;;;;;16.92;11.43;;;-3.40;99.90;;;;;;5072370;28;20123;-63
2024/01/10 09:27:33;;;;;;;15.68;9.93;;;-3.30;99.90;;;;;;5069542;28;20603;-64
2024/01/10 09:30:01;;;;;;;15.70;10.10;;;-2.70;99.90;;;;;;5078035;28;20047;-63
2024/01/10 09:32:28;;;;;;;13.88;10.25;;;-3.30;99.90;;;;;;5072305;28;20050;-63
2024/01/10 09:34:54;;;;;;;16.08;10.70;;;-3.20;99.90;;;;;;5075762;28;20105;-63
2024/01/10 09:37:20;;;;;;;17.73;10.07;;;-3.30;99.90;;;;;;5076180;28;20048;-63
2024/01/10 09:39:46;;;;;;;15.65;10.93;;;-3.20;99.90;;;;;;5074740;28;20371;-63
2024/01/10 09:42:12;;;;;;;16.38;11.32;;;-3.20;99.90;;;;;;5072493;28;20493;-65
2024/01/10 09:44:38;;;;;;;15.63;9.73;;;-3.20;99.90;;;;;;5074106;28;20050;-63
2024/01/10 09:47:05;;;;;;;14.57;9.57;;;-3.20;99.90;;;;;;5078708;28;20127;-64
2024/01/10 09:49:30;;;;;;;15.50;10.63;;;-3.10;99.90;;;;;;5073767;28;20044;-63
2024/01/10 09:52:03;;;;;;;18.42;11.05;;;-3.10;99.90;;;;;;5077595;28;20055;-63
2024/01/10 09:54:30;;;;;;;16.95;10.55;;;-3.10;99.90;;;;;;5075107;28;20045;-63
2024/01/10 09:56:59;;;;;;;15.73;10.38;;;-3.00;99.90;;;;;;5078610;28;20063;-63
2024/01/10 09:59:25;;;;;;;16.67;11.00;;;-2.90;99.90;;;;;;5077233;28;20036;-63
2024/01/10 10:01:56;;;;;;;16.50;10.27;;;-2.90;99.90;;;;;;5078852;28;20393;-63
2024/01/10 10:04:24;;;;;;;16.88;10.60;;;-2.90;99.90;;;;;;5076928;28;20608;-63
2024/01/10 10:06:58;;;;;;;16.48;10.80;;;-2.80;99.90;;;;;;5075281;28;20059;-63
2024/01/10 10:09:25;;;;;;;14.23;9.63;;;-2.80;99.90;;;;;;5074799;28;20402;-63
2024/01/10 10:11:55;;;;;;;17.45;9.38;;;-2.70;99.90;;;;;;5073696;28;20041;-63
2024/01/10 10:14:20;;;;;;;15.70;10.20;;;-2.60;99.90;;;;;;5074109;28;20035;-63
2024/01/10 10:16:46;;;;;;;17.50;9.75;;;-2.60;99.90;;;;;;5075668;28;20058;-63
2024/01/10 10:19:13;;;;;;;13.73;8.73;;;-2.50;99.90;;;;;;5078852;28;20028;-63
2024/01/10 10:21:39;;;;;;;14.13;9.60;;;-2.40;99.90;;;;;;5076354;28;20177;-63
2024/01/10 10:24:05;;;;;;;14.90;9.25;;;-2.50;99.90;;;;;;5073918;28;20048;-63
2024/01/10 10:26:34;;;;;;;15.07;9.13;;;-2.40;99.90;;;;;;5076565;28;20490;-63
2024/01/10 10:29:01;;;;;;;15.13;9.40;;;-2.40;99.90;;;;;;5074752;28;20044;-63
2024/01/10 10:31:27;;;;;;;15.65;10.52;;;-2.20;99.90;;;;;;5075604;28;20055;-64
2024/01/10 10:33:52;;;;;;;15.93;10.15;;;-2.20;99.90;;;;;;5042897;28;20474;-63
2024/01/10 10:36:19;;;;;;;14.13;9.05;;;-2.20;99.90;;;;;;5076557;28;20043;-63
2024/01/10 10:38:48;;;;;;;13.40;8.60;;;-2.10;99.90;;;;;;5073361;28;20040;-63
2024/01/10 10:41:14;;;;;;;15.13;9.20;;;-2.00;99.90;;;;;;5073518;28;20040;-63
2024/01/10 10:43:40;;;;;;;14.40;9.07;;;-1.90;99.90;;;;;;5073675;28;20051;-63
2024/01/10 10:46:09;;;;;;;14.43;9.38;;;-1.80;99.90;;;;;;5105985;27;20598;-64
2024/01/10 10:48:36;;;;;;;15.48;8.50;;;-1.80;99.90;;;;;;5075062;28;20778;-64
2024/01/10 10:51:10;;;;;;;14.13;8.90;;;-1.70;99.90;;;;;;5073752;28;20043;-64
2024/01/10 10:53:42;;;;;;;12.95;7.68;;;-1.60;99.90;;;;;;5076670;28;20115;-63
2024/01/10 10:56:09;;;;;;;11.98;7.65;;;-1.60;99.90;;;;;;5070335;28;20068;-63
2024/01/10 10:58:40;;;;;;;13.20;7.78;;;-1.50;99.90;;;;;;5085894;28;20039;-63
2024/01/10 11:01:07;;;;;;;12.43;7.88;;;-1.50;99.90;;;;;;5074271;28;20057;-63
2024/01/10 11:03:44;;;;;;;13.20;8.73;;;-1.40;99.90;;;;;;5077244;28;20047;-63
2024/01/10 11:06:10;;;;;;;11.75;7.65;;;-1.30;99.90;;;;;;5078864;28;20048;-63
2024/01/10 11:08:37;;;;;;;11.63;7.32;;;-1.20;99.90;;;;;;5073804;28;20046;-63
2024/01/10 11:11:21;;;;;;;9.82;6.65;;;-1.20;99.90;;;;;;5075933;28;20043;-63
2024/01/10 11:14:14;;;;;;;12.02;7.85;;;-1.10;99.90;;;;;;5065146;28;20053;-63
2024/01/10 11:16:49;;;;;;;12.25;7.65;;;-1.00;99.90;;;;;;5075149;28;20068;-63
2024/01/10 11:19:33;;;;;;;12.90;8.18;;;-1.00;99.90;;;;;;5074009;28;20152;-63
2024/01/10 11:22:40;;;;;;;10.27;6.85;;;-0.90;99.90;;;;;;5075599;28;20099;-63
2024/01/10 11:25:06;;;;;;;10.63;7.38;;;-0.70;99.90;;;;;;5080718;28;20055;-63
2024/01/10 11:27:32;;;;;;;11.02;6.68;;;-0.20;99.90;;;;;;5083769;28;20477;-63
2024/01/10 11:29:58;;;;;;;11.27;7.57;;;-0.60;99.90;;;;;;5080807;28;20040;-63
2024/01/10 11:32:24;;;;;;;11.27;6.60;;;-0.60;99.90;;;;;;5084748;28;20481;-63
2024/01/10 11:34:55;;;;;;;14.13;8.13;;;-0.50;99.90;;;;;;5082941;28;21288;-63
2024/01/10 11:37:21;;;;;;;12.25;7.35;;;-0.50;99.90;;;;;;5080359;28;20040;-63
2024/01/10 11:39:46;;;;;;;11.23;6.63;;;-0.40;99.90;;;;;;5082095;28;20500;-63
2024/01/10 11:42:22;;;;;;;10.63;6.75;;;-0.30;99.90;;;;;;5083568;28;20040;-63
2024/01/10 11:44:51;;;;;;;13.43;8.40;;;-0.20;99.90;;;;;;5081558;28;20039;-63
2024/01/10 11:47:19;;;;;;;11.70;7.00;;;-0.10;99.90;;;;;;5081790;28;20078;-63
2024/01/10 11:49:54;;;;;;;12.60;7.78;;;-0.10;99.90;;;;;;5080582;28;20393;-63
2024/01/10 11:52:23;;;;;;;11.38;7.32;;;0.00;99.90;;;;;;5084102;28;20040;-63
2024/01/10 11:54:50;;;;;;;12.73;8.48;;;0.00;99.90;;;;;;5102224;27;20085;-63
2024/01/10 11:57:22;;;;;;;11.80;8.35;;;0.00;99.90;;;;;;5075984;28;20048;-63
2024/01/10 11:59:59;;;;;;;11.73;8.02;;;0.00;99.90;;;;;;5074586;28;20032;-63
2024/01/10 12:02:26;;;;;;;14.00;7.40;;;0.00;99.90;;;;;;5071054;28;20060;-63
2024/01/10 12:04:52;;;;;;;12.63;7.75;;;0.10;99.90;;;;;;5075349;28;20102;-63
2024/01/10 12:07:19;;;;;;;11.57;7.72;;;-0.10;99.90;;;;;;5077987;28;20111;-63
2024/01/10 12:09:45;;;;;;;11.25;7.22;;;0.10;99.90;;;;;;5078934;28;20397;-63
2024/01/10 12:12:13;;;;;;;11.63;7.35;;;0.00;99.90;;;;;;5072292;28;20094;-63
2024/01/10 12:14:40;;;;;;;11.15;7.32;;;0.00;99.60;;;;;;5059254;28;20036;-63
2024/01/10 12:17:08;;;;;;;12.30;7.35;;;0.00;99.80;;;;;;5070693;28;20049;-63
2024/01/10 12:19:35;;;;;;;12.48;7.78;;;0.10;99.90;;;;;;5072499;28;20131;-63
2024/01/10 12:22:01;;;;;;;11.48;7.80;;;0.00;99.80;;;;;;5103581;27;20040;-64
2024/01/10 12:24:30;;;;;;;10.52;6.68;;;0.10;99.90;;;;;;5077187;28;20077;-63
2024/01/10 12:26:56;;;;;;;11.75;7.18;;;0.00;99.90;;;;;;5073809;28;20457;-63
2024/01/10 12:29:22;;;;;;;12.23;7.55;;;-0.10;99.90;;;;;;5074913;28;20193;-63